Aérodrome :
LOGIN :

S'inscrire | Disclaimer

   EN    FR    IT 

 










Légende :    VFR   VFR Marginal   IFR   IFR Intensif   IFR Très Intensif
Visi : 
Plafond : 
>= 8 km
>= 3000ft
5 à 8 km
1000 à 3000 ft
1500m à 5 km
500 à 1000 ft
800 à 1500m
200 à 500 ft
< 800m
< 200 ft
Symboles :   Orages  Brouillard  Fortes neiges  Fortes précipitations  Vent > 20 kt
SIGMETs :   Divers  Orages  Givrage  Turbulence  Onde Orograph.  Cendres Volcan.






- Altitude de l'aérodrome : 963 ft
- Code IATA : TGM


LRTM - Transilvania Târgu Mureş Int.

DERNIER METAR :
  • 151630Z 06005KT 9999 FEW015 FEW034CB BKN037 21/18 Q1013

METARs EXPIRÉS :
  • 151600Z 08003KT 9999 FEW015 FEW034CB BKN037 21/18 Q1013
  • 151530Z 05006KT 9999 -RA FEW015 FEW035CB BKN037 22/19 Q1013
  • 151500Z VRB01KT 9999 -RA FEW015 FEW035CB BKN037 22/19 Q1013
  • 151430Z 00000KT 9999 -RA SCT016 BKN037 22/18 Q1013
  • 151400Z 12003KT 9999 -RA SCT015 BKN038 22/19 Q1013

TAF TAF LRTM
Valide du 15 à 15h jusqu'au 16 à 00h UTC


151400Z 1515/1600 11008KT 9999 BKN050
TEMPO 1515/1519 5000 -SHRA BKN015 BKN030CB
BECMG 1519/1521 5000 BR BKN015 BKN030



MET'MAP, la Météo Aéronautique d'un coup d'oeil ! - Copyright ORBIFLY Décembre 2007 - Disclaimer

ORBIFLY MET'MAP TEAM :

Programmation & Développement : Alexandra Zaïnal
Sur une idée originale de : Baudouin d'Aumeries
Assistance à la programmation : Marc-Olivier Méhu
Soutien technique & logistique : Manuel Goepfert

Contact : metmap@orbifly.com




SOURCES & CREDITS :

   NOAA